createdAt,value
2022-10-23T00:01:39.956Z,8.81
2022-10-23T00:04:17.856Z,8.81
2022-10-23T00:10:06.059Z,8.83
2022-10-23T00:12:32.719Z,8.83
2022-10-23T00:14:59.388Z,8.82
2022-10-23T00:17:26.064Z,8.82
2022-10-23T00:19:52.693Z,8.84
2022-10-23T00:22:19.492Z,8.86
2022-10-23T00:24:46.123Z,8.87
2022-10-23T00:27:12.769Z,8.86
2022-10-23T00:29:39.445Z,8.85
2022-10-23T00:32:06.392Z,8.85
2022-10-23T00:34:33.061Z,8.85
2022-10-23T00:36:59.762Z,8.86
2022-10-23T00:39:26.418Z,8.86
2022-10-23T00:41:53.152Z,8.87
2022-10-23T00:44:20.384Z,8.89
2022-10-23T00:46:47.418Z,8.91
2022-10-23T00:49:14.182Z,8.92
2022-10-23T00:51:44.924Z,8.93
2022-10-23T00:54:23.560Z,8.91
2022-10-23T00:56:52.807Z,8.89
2022-10-23T00:59:19.462Z,8.89
2022-10-23T01:01:46.405Z,8.90
2022-10-23T01:04:13.161Z,8.92
2022-10-23T01:07:08.611Z,8.92
2022-10-23T01:09:47.460Z,8.91
2022-10-23T01:12:29.075Z,8.90
2022-10-23T01:14:55.773Z,8.91
2022-10-23T01:17:25.069Z,8.93
2022-10-23T01:19:57.832Z,8.95
2022-10-23T01:22:57.199Z,8.98
2022-10-23T01:25:31.390Z,9.01
2022-10-23T01:28:01.555Z,9.03
2022-10-23T01:30:28.236Z,9.08
2022-10-23T01:33:09.637Z,9.12
2022-10-23T01:35:52.189Z,9.16
2022-10-23T01:38:23.024Z,9.20
2022-10-23T01:40:57.724Z,9.22
2022-10-23T01:43:32.469Z,9.23
2022-10-23T01:46:01.831Z,9.26
2022-10-23T01:48:29.833Z,9.29
2022-10-23T01:50:59.489Z,9.30
2022-10-23T01:53:27.646Z,9.33
2022-10-23T01:55:54.454Z,9.33
2022-10-23T01:58:24.945Z,9.33
2022-10-23T02:00:53.216Z,9.33
2022-10-23T02:03:20.480Z,9.34
2022-10-23T02:05:47.296Z,9.32
2022-10-23T02:08:14.000Z,9.32
2022-10-23T02:11:00.136Z,9.32
2022-10-23T02:13:33.773Z,9.33
2022-10-23T02:16:24.735Z,9.32
2022-10-23T02:19:15.373Z,9.30
2022-10-23T02:21:50.473Z,9.25
2022-10-23T02:24:19.321Z,9.24
2022-10-23T02:26:54.077Z,9.24
2022-10-23T02:29:33.641Z,9.25
2022-10-23T02:32:02.349Z,9.25
2022-10-23T02:34:29.047Z,9.27
2022-10-23T02:37:08.145Z,9.30
2022-10-23T02:39:35.137Z,9.31
2022-10-23T02:42:16.020Z,9.32
2022-10-23T02:44:55.695Z,9.31
2022-10-23T02:47:59.823Z,9.29
2022-10-23T02:50:49.645Z,9.24
2022-10-23T02:53:20.366Z,9.23
2022-10-23T02:55:57.581Z,9.20
2022-10-23T02:58:34.963Z,9.19
2022-10-23T03:01:08.437Z,9.20
2022-10-23T03:03:40.765Z,9.19
2022-10-23T03:06:07.486Z,9.20
2022-10-23T03:08:55.409Z,9.20
2022-10-23T03:11:24.604Z,9.20
2022-10-23T03:13:51.375Z,9.20
2022-10-23T03:16:18.177Z,9.21
2022-10-23T03:18:50.532Z,9.21
2022-10-23T03:21:17.479Z,9.22
2022-10-23T03:23:44.155Z,9.24
2022-10-23T03:26:14.133Z,9.26
2022-10-23T03:28:42.450Z,9.29
2022-10-23T03:31:09.166Z,9.30
2022-10-23T03:33:38.664Z,9.32
2022-10-23T03:36:08.237Z,9.31
2022-10-23T03:38:34.962Z,9.32
2022-10-23T03:41:01.989Z,9.33
2022-10-23T03:43:28.672Z,9.34
2022-10-23T03:45:58.761Z,9.35
2022-10-23T03:48:26.037Z,9.37
2022-10-23T03:50:57.381Z,9.39
2022-10-23T03:53:24.181Z,9.42
2022-10-23T03:55:51.066Z,9.44
2022-10-23T03:58:17.805Z,9.44
2022-10-23T04:00:45.215Z,9.47
2022-10-23T04:03:12.047Z,9.49
2022-10-23T04:05:39.198Z,9.52
2022-10-23T04:08:05.872Z,9.55
2022-10-23T04:10:33.477Z,9.59
2022-10-23T04:13:00.599Z,9.61
2022-10-23T04:15:27.524Z,9.64
2022-10-23T04:17:54.775Z,9.66
2022-10-23T04:20:21.442Z,9.68
2022-10-23T04:22:48.111Z,9.72
2022-10-23T04:25:16.567Z,9.73
2022-10-23T04:27:44.427Z,9.75
2022-10-23T04:30:11.804Z,9.77
2022-10-23T04:32:38.828Z,9.78
2022-10-23T04:35:06.540Z,9.79
2022-10-23T04:37:33.517Z,9.81
2022-10-23T04:40:00.403Z,9.81
2022-10-23T04:45:00.646Z,9.83
2022-10-23T04:47:27.672Z,9.85
2022-10-23T04:49:57.230Z,9.87
2022-10-23T04:52:42.821Z,9.89
2022-10-23T04:55:35.994Z,9.89
2022-10-23T04:58:15.440Z,9.90
2022-10-23T05:00:43.930Z,9.90
2022-10-23T05:03:13.935Z,9.91
2022-10-23T05:05:41.950Z,9.92
2022-10-23T05:08:30.392Z,9.94
2022-10-23T05:11:17.493Z,9.95
2022-10-23T05:13:46.904Z,9.96
2022-10-23T05:16:33.106Z,9.98
2022-10-23T05:19:00.316Z,9.99
2022-10-23T05:21:27.537Z,10.01
2022-10-23T05:23:54.528Z,10.02
2022-10-23T05:26:22.526Z,10.05
2022-10-23T05:28:51.977Z,10.08
2022-10-23T05:31:18.824Z,10.09
2022-10-23T05:33:49.328Z,10.12
2022-10-23T05:36:16.302Z,10.13
2022-10-23T05:38:45.745Z,10.12
2022-10-23T05:41:16.130Z,10.16
2022-10-23T05:43:42.928Z,10.18
2022-10-23T05:46:29.586Z,10.22
2022-10-23T05:49:18.452Z,10.23
2022-10-23T05:52:12.001Z,10.24
2022-10-23T05:55:07.965Z,10.27
2022-10-23T05:57:46.744Z,10.29
2022-10-23T06:00:16.856Z,10.32
2022-10-23T06:02:52.352Z,10.35
2022-10-23T06:05:35.119Z,10.38
2022-10-23T06:08:28.341Z,10.40
2022-10-23T06:10:55.103Z,10.39
2022-10-23T06:13:22.067Z,10.41
2022-10-23T06:15:48.918Z,10.42
2022-10-23T06:18:24.663Z,10.44
2022-10-23T06:21:00.420Z,10.45
2022-10-23T06:23:27.192Z,10.46
2022-10-23T06:26:18.069Z,10.48
2022-10-23T06:29:03.560Z,10.46
2022-10-23T06:31:30.349Z,10.45
2022-10-23T06:33:58.260Z,10.46
2022-10-23T06:36:25.308Z,10.49
2022-10-23T06:38:56.365Z,10.52
2022-10-23T06:41:26.266Z,10.55
2022-10-23T06:43:54.895Z,10.58
2022-10-23T06:46:41.237Z,10.60
2022-10-23T06:49:26.731Z,10.62
2022-10-23T06:51:54.750Z,10.63
2022-10-23T06:54:21.519Z,10.66
2022-10-23T06:56:48.181Z,10.66
2022-10-23T06:59:17.621Z,10.67
2022-10-23T07:01:52.613Z,10.67
2022-10-23T07:04:36.065Z,10.68
2022-10-23T07:07:04.785Z,10.70
2022-10-23T07:09:37.992Z,10.72
2022-10-23T07:12:21.143Z,10.73
2022-10-23T07:14:52.332Z,10.73
2022-10-23T07:17:19.163Z,10.72
2022-10-23T07:19:47.021Z,10.72
2022-10-23T07:22:16.098Z,10.71
2022-10-23T07:25:09.368Z,10.70
2022-10-23T07:27:38.595Z,10.71
2022-10-23T07:30:07.932Z,10.73
2022-10-23T07:32:43.113Z,10.72
2022-10-23T07:35:28.618Z,10.74
2022-10-23T07:38:04.504Z,10.76
2022-10-23T07:40:33.107Z,10.77
2022-10-23T07:43:00.208Z,10.80
2022-10-23T07:45:27.138Z,10.83
2022-10-23T07:47:54.173Z,10.88
2022-10-23T07:50:23.602Z,10.93
2022-10-23T07:52:50.853Z,10.97
2022-10-23T07:55:18.063Z,11.03
2022-10-23T07:57:48.916Z,11.07
2022-10-23T08:00:45.580Z,11.09
2022-10-23T08:03:20.483Z,11.12
2022-10-23T08:05:47.771Z,11.16
2022-10-23T08:08:14.613Z,11.18
2022-10-23T08:10:43.628Z,11.22
2022-10-23T08:13:13.227Z,11.27
2022-10-23T08:16:12.431Z,11.29
2022-10-23T08:18:58.081Z,11.30
2022-10-23T08:21:25.112Z,11.30
2022-10-23T08:23:56.699Z,11.30
2022-10-23T08:26:24.754Z,11.31
2022-10-23T08:28:52.284Z,11.33
2022-10-23T08:31:20.012Z,11.37
2022-10-23T08:34:03.234Z,11.41
2022-10-23T08:36:30.266Z,11.45
2022-10-23T08:38:57.700Z,11.50
2022-10-23T08:41:41.452Z,11.52
2022-10-23T08:44:23.406Z,11.56
2022-10-23T08:47:05.168Z,11.58
2022-10-23T08:49:55.471Z,11.63
2022-10-23T08:52:58.367Z,11.65
2022-10-23T08:55:34.246Z,11.68
2022-10-23T08:58:04.159Z,11.70
2022-10-23T09:00:30.992Z,11.73
2022-10-23T09:03:00.530Z,11.72
2022-10-23T09:05:29.145Z,11.73
2022-10-23T09:08:23.880Z,11.74
2022-10-23T09:11:02.785Z,11.78
2022-10-23T09:14:06.724Z,11.80
2022-10-23T09:16:39.558Z,11.84
2022-10-23T09:19:12.314Z,11.87
2022-10-23T09:21:39.442Z,11.88
2022-10-23T09:24:06.484Z,11.91
2022-10-23T09:26:33.301Z,11.91
2022-10-23T09:29:14.971Z,11.94
2022-10-23T09:31:49.623Z,11.99
2022-10-23T09:34:19.818Z,12.02
2022-10-23T09:36:57.669Z,12.04
2022-10-23T09:39:31.308Z,12.09
2022-10-23T09:41:58.250Z,12.12
2022-10-23T09:44:28.835Z,12.14
2022-10-23T09:47:00.008Z,12.13
2022-10-23T09:49:28.675Z,12.12
2022-10-23T09:52:05.519Z,12.15
2022-10-23T09:54:35.320Z,12.17
2022-10-23T09:57:22.726Z,12.19
2022-10-23T09:59:53.612Z,12.20
2022-10-23T10:02:27.082Z,12.22
2022-10-23T10:05:42.314Z,12.25
2022-10-23T10:08:17.931Z,12.29
2022-10-23T10:10:50.496Z,12.31
2022-10-23T10:13:39.583Z,12.30
2022-10-23T10:17:57.201Z,12.35
2022-10-23T10:20:28.928Z,12.36
2022-10-23T10:23:27.455Z,12.36
2022-10-23T10:26:06.024Z,12.38
2022-10-23T10:28:51.049Z,12.39
2022-10-23T10:31:26.837Z,12.42
2022-10-23T10:34:05.676Z,12.45
2022-10-23T10:36:49.959Z,12.47
2022-10-23T10:39:25.293Z,12.50
2022-10-23T10:42:04.731Z,12.53
2022-10-23T10:44:43.714Z,12.56
2022-10-23T10:47:18.471Z,12.57
2022-10-23T10:49:52.168Z,12.59
2022-10-23T10:52:45.402Z,12.59
2022-10-23T10:55:28.652Z,12.59
2022-10-23T10:58:04.237Z,12.60
2022-10-23T11:00:31.710Z,12.60
2022-10-23T11:03:28.002Z,12.60
2022-10-23T11:05:55.248Z,12.59
2022-10-23T11:08:56.088Z,12.58
2022-10-23T11:11:29.248Z,12.58
2022-10-23T11:13:56.089Z,12.59
2022-10-23T11:16:25.818Z,12.61
2022-10-23T11:19:22.155Z,12.62
2022-10-23T11:21:54.465Z,12.65
2022-10-23T11:24:58.508Z,12.67
2022-10-23T11:27:51.324Z,12.68
2022-10-23T11:30:36.176Z,12.71
2022-10-23T11:33:44.628Z,12.75
2022-10-23T11:36:17.683Z,12.79
2022-10-23T11:38:59.211Z,12.82
2022-10-23T11:41:27.442Z,12.86
2022-10-23T11:44:06.095Z,12.88
2022-10-23T11:46:35.565Z,12.91
2022-10-23T11:49:03.845Z,12.95
2022-10-23T11:51:31.880Z,12.98
2022-10-23T11:54:22.562Z,13.03
2022-10-23T11:57:07.992Z,13.09
2022-10-23T11:59:42.995Z,13.17
2022-10-23T12:02:34.524Z,13.23
2022-10-23T12:05:06.944Z,13.31
2022-10-23T12:07:36.456Z,13.37
2022-10-23T12:10:27.745Z,13.42
2022-10-23T12:12:59.024Z,13.48
2022-10-23T12:15:26.274Z,13.49
2022-10-23T12:17:54.353Z,13.51
2022-10-23T12:20:35.315Z,13.52
2022-10-23T12:23:08.225Z,13.54
2022-10-23T12:25:49.481Z,13.61
2022-10-23T12:29:04.044Z,13.69
2022-10-23T12:31:33.735Z,13.76
2022-10-23T12:34:43.447Z,13.77
2022-10-23T12:37:21.411Z,13.76
2022-10-23T12:39:58.250Z,13.77
2022-10-23T12:42:29.133Z,13.77
2022-10-23T12:45:00.530Z,13.76
2022-10-23T12:47:27.456Z,13.77
2022-10-23T12:49:54.335Z,13.75
2022-10-23T12:52:21.500Z,13.75
2022-10-23T12:54:50.830Z,13.73
2022-10-23T12:57:29.012Z,13.73
2022-10-23T13:00:02.955Z,13.73
2022-10-23T13:02:31.737Z,13.72
2022-10-23T13:05:01.199Z,13.72
2022-10-23T13:07:29.753Z,13.71
2022-10-23T13:09:58.747Z,13.70
2022-10-23T13:12:32.941Z,13.67
2022-10-23T13:15:10.903Z,13.67
2022-10-23T13:17:46.261Z,13.65
2022-10-23T13:20:16.343Z,13.63
2022-10-23T13:22:43.474Z,13.59
2022-10-23T13:25:24.008Z,13.54
2022-10-23T13:27:50.889Z,13.51
2022-10-23T13:30:31.738Z,13.49
2022-10-23T13:32:58.763Z,13.48
2022-10-23T13:35:25.738Z,13.46
2022-10-23T13:37:53.648Z,13.43
2022-10-23T13:40:25.793Z,13.41
2022-10-23T13:42:56.280Z,13.39
2022-10-23T13:45:25.056Z,13.37
2022-10-23T13:47:52.171Z,13.33
2022-10-23T13:50:19.434Z,13.32
2022-10-23T13:52:47.466Z,13.30
2022-10-23T13:55:23.486Z,13.27
2022-10-23T13:57:50.832Z,13.27
2022-10-23T14:00:18.224Z,13.26
2022-10-23T14:02:45.206Z,13.24
2022-10-23T14:05:12.395Z,13.21
2022-10-23T14:07:39.879Z,13.17
2022-10-23T14:10:07.208Z,13.15
2022-10-23T14:12:43.953Z,13.10
2022-10-23T14:15:11.433Z,13.07
2022-10-23T14:17:38.460Z,13.02
2022-10-23T14:20:06.552Z,12.97
2022-10-23T14:22:34.032Z,12.92
2022-10-23T14:25:00.936Z,12.89
2022-10-23T14:27:28.292Z,12.85
2022-10-23T14:29:56.030Z,12.81
2022-10-23T14:32:23.249Z,12.78
2022-10-23T14:34:51.756Z,12.76
2022-10-23T14:37:21.018Z,12.73
2022-10-23T14:39:50.185Z,12.70
2022-10-23T14:42:17.753Z,12.67
2022-10-23T14:44:45.241Z,12.64
2022-10-23T14:47:21.949Z,12.61
2022-10-23T14:49:52.147Z,12.59
2022-10-23T14:52:19.312Z,12.56
2022-10-23T14:54:48.678Z,12.51
2022-10-23T14:57:17.985Z,12.48
2022-10-23T14:59:45.072Z,12.45
2022-10-23T15:02:12.040Z,12.42
2022-10-23T15:04:39.377Z,12.40
2022-10-23T15:07:06.513Z,12.39
2022-10-23T15:09:36.328Z,12.38
2022-10-23T15:12:04.035Z,12.38
2022-10-23T15:14:31.105Z,12.37
2022-10-23T15:16:58.072Z,12.37
2022-10-23T15:19:25.433Z,12.36
2022-10-23T15:21:52.790Z,12.36
2022-10-23T15:24:21.523Z,12.37
2022-10-23T15:26:48.818Z,12.38
2022-10-23T15:29:16.168Z,12.38
2022-10-23T15:31:55.303Z,12.39
2022-10-23T15:34:23.985Z,12.39
2022-10-23T15:36:51.382Z,12.40
2022-10-23T15:39:23.961Z,12.40
2022-10-23T15:41:54.255Z,12.40
2022-10-23T15:44:22.241Z,12.40
2022-10-23T15:46:49.492Z,12.39
2022-10-23T15:49:16.870Z,12.39
2022-10-23T15:51:43.903Z,12.39
2022-10-23T15:54:16.520Z,12.38
2022-10-23T15:56:44.032Z,12.38
2022-10-23T15:59:11.023Z,12.36
2022-10-23T16:01:38.111Z,12.35
2022-10-23T16:04:04.988Z,12.35
2022-10-23T16:06:31.918Z,12.34
2022-10-23T16:08:58.790Z,12.34
2022-10-23T16:11:27.433Z,12.34
2022-10-23T16:13:55.110Z,12.35
2022-10-23T16:16:21.925Z,12.35
2022-10-23T16:18:48.836Z,12.35
2022-10-23T16:21:20.875Z,12.34
2022-10-23T16:23:47.857Z,12.33
2022-10-23T16:26:15.164Z,12.32
2022-10-23T16:28:43.902Z,12.32
2022-10-23T16:31:14.419Z,12.31
2022-10-23T16:33:43.363Z,12.32
2022-10-23T16:36:10.688Z,12.32
2022-10-23T16:38:56.438Z,12.30
2022-10-23T16:41:43.184Z,12.29
2022-10-23T16:44:17.723Z,12.30
2022-10-23T16:47:10.851Z,12.28
2022-10-23T16:49:37.792Z,12.25
2022-10-23T16:52:04.601Z,12.24
2022-10-23T16:54:31.503Z,12.24
2022-10-23T16:56:58.692Z,12.23
2022-10-23T16:59:25.641Z,12.24
2022-10-23T17:01:53.265Z,12.24
2022-10-23T17:04:20.128Z,12.24
2022-10-23T17:06:46.950Z,12.24
2022-10-23T17:09:14.014Z,12.24
2022-10-23T17:11:41.013Z,12.24
2022-10-23T17:14:13.725Z,12.22
2022-10-23T17:16:44.582Z,12.21
2022-10-23T17:19:20.736Z,12.21
2022-10-23T17:21:59.931Z,12.18
2022-10-23T17:24:27.020Z,12.19
2022-10-23T17:26:54.298Z,12.19
2022-10-23T17:29:21.121Z,12.19
2022-10-23T17:31:49.231Z,12.21
2022-10-23T17:34:18.677Z,12.22
2022-10-23T17:36:47.429Z,12.22
2022-10-23T17:39:15.694Z,12.21
2022-10-23T17:41:43.372Z,12.22
2022-10-23T17:44:10.414Z,12.22
2022-10-23T17:46:37.274Z,12.24
2022-10-23T17:49:04.503Z,12.24
2022-10-23T17:51:32.607Z,12.24
2022-10-23T17:54:00.896Z,12.25
2022-10-23T17:56:28.997Z,12.26
2022-10-23T17:59:09.547Z,12.26
2022-10-23T18:01:37.123Z,12.25
2022-10-23T18:04:06.968Z,12.27
2022-10-23T18:06:36.045Z,12.28
2022-10-23T18:09:04.035Z,12.28
2022-10-23T18:11:33.229Z,12.27
2022-10-23T18:16:32.717Z,12.24
2022-10-23T18:18:59.937Z,12.24
2022-10-23T18:21:27.488Z,12.24
2022-10-23T18:23:54.439Z,12.22
2022-10-23T18:26:25.463Z,12.22
2022-10-23T18:28:55.523Z,12.22
2022-10-23T18:31:25.057Z,12.23
2022-10-23T18:34:03.384Z,12.24
2022-10-23T18:36:32.400Z,12.25
2022-10-23T18:38:59.359Z,12.27
2022-10-23T18:41:26.294Z,12.26
2022-10-23T18:43:53.183Z,12.25
2022-10-23T18:46:20.165Z,12.25
2022-10-23T18:49:04.527Z,12.25
2022-10-23T18:51:34.307Z,12.22
2022-10-23T18:54:02.410Z,12.21
2022-10-23T18:56:29.051Z,12.21
2022-10-23T18:59:00.592Z,12.19
2022-10-23T19:01:27.860Z,12.18
2022-10-23T19:06:23.004Z,12.17
2022-10-23T19:08:50.267Z,12.18
2022-10-23T19:11:18.340Z,12.18
2022-10-23T19:13:45.135Z,12.17
2022-10-23T19:16:14.573Z,12.17
2022-10-23T19:18:49.097Z,12.17
2022-10-23T19:21:17.334Z,12.17
2022-10-23T19:23:44.217Z,12.16
2022-10-23T19:26:12.103Z,12.16
2022-10-23T19:28:44.324Z,12.15
2022-10-23T19:31:11.161Z,12.14
2022-10-23T19:33:38.981Z,12.14
2022-10-23T19:36:07.999Z,12.14
2022-10-23T19:38:36.810Z,12.14
2022-10-23T19:41:03.953Z,12.16
2022-10-23T19:43:30.772Z,12.16
2022-10-23T19:46:01.035Z,12.15
2022-10-23T19:48:27.849Z,12.16
2022-10-23T19:50:54.508Z,12.15
2022-10-23T19:53:21.248Z,12.14
2022-10-23T19:55:48.010Z,12.14
2022-10-23T19:58:15.013Z,12.15
2022-10-23T20:00:41.803Z,12.16
2022-10-23T20:03:08.480Z,12.17
2022-10-23T20:05:35.218Z,12.18
2022-10-23T20:08:01.966Z,12.19
2022-10-23T20:10:28.595Z,12.21
2022-10-23T20:13:02.361Z,12.22
2022-10-23T20:21:48.024Z,12.22
2022-10-23T20:24:16.016Z,12.22
2022-10-23T20:26:43.728Z,12.23
2022-10-23T20:29:10.537Z,12.25
2022-10-23T20:31:39.529Z,12.26
2022-10-23T20:34:06.941Z,12.28
2022-10-23T20:36:40.175Z,12.29
2022-10-23T20:39:11.064Z,12.32
2022-10-23T20:41:37.721Z,12.33
2022-10-23T20:44:05.573Z,12.32
2022-10-23T20:46:32.418Z,12.32
2022-10-23T20:48:59.153Z,12.33
2022-10-23T20:51:27.677Z,12.35
2022-10-23T20:53:54.828Z,12.36
2022-10-23T20:56:23.658Z,12.37
2022-10-23T20:58:50.443Z,12.38
2022-10-23T21:01:20.513Z,12.39
2022-10-23T21:03:51.260Z,12.40
2022-10-23T21:06:18.086Z,12.40
2022-10-23T21:08:44.801Z,12.41
2022-10-23T21:11:12.595Z,12.41
2022-10-23T21:13:39.289Z,12.42
2022-10-23T21:16:17.627Z,12.42
2022-10-23T21:18:46.729Z,12.42
2022-10-23T21:21:45.445Z,12.42
2022-10-23T21:24:14.677Z,12.43
2022-10-23T21:26:41.609Z,12.43
2022-10-23T21:29:21.122Z,12.40
2022-10-23T21:31:54.831Z,12.39
2022-10-23T21:34:22.189Z,12.39
2022-10-23T21:37:11.485Z,12.39
2022-10-23T21:39:35.590Z,12.38
2022-10-23T21:42:02.258Z,12.37
2022-10-23T21:44:28.853Z,12.35
2022-10-23T21:46:55.531Z,12.35
2022-10-23T21:49:22.265Z,12.34
2022-10-23T21:51:48.916Z,12.32
2022-10-23T21:54:15.605Z,12.27
2022-10-23T21:56:47.036Z,12.24
2022-10-23T21:59:14.917Z,12.22
2022-10-23T22:01:43.474Z,12.23
2022-10-23T22:04:10.987Z,12.22
2022-10-23T22:06:37.942Z,12.23
2022-10-23T22:09:04.715Z,12.23
2022-10-23T22:11:31.653Z,12.22
2022-10-23T22:13:58.657Z,12.23
2022-10-23T22:16:25.309Z,12.22
2022-10-23T22:18:52.117Z,12.22
2022-10-23T22:21:22.945Z,12.23
2022-10-23T22:23:50.718Z,12.23
2022-10-23T22:26:26.584Z,12.24
2022-10-23T22:28:54.343Z,12.23
2022-10-23T22:31:22.980Z,12.22
2022-10-23T22:36:01.958Z,12.24
2022-10-23T22:38:30.930Z,12.20
2022-10-23T22:41:00.521Z,12.22
2022-10-23T22:43:27.275Z,12.23
2022-10-23T22:45:53.901Z,12.24
2022-10-23T22:48:20.577Z,12.24
2022-10-23T22:50:47.244Z,12.25
2022-10-23T22:53:13.875Z,12.26
2022-10-23T22:55:43.488Z,12.27
2022-10-23T22:58:10.175Z,12.28
2022-10-23T23:00:42.888Z,12.29
2022-10-23T23:03:16.163Z,12.30
2022-10-23T23:05:46.606Z,12.30
2022-10-23T23:08:13.981Z,12.31
2022-10-23T23:10:40.743Z,12.31
2022-10-23T23:13:07.589Z,12.32
2022-10-23T23:15:39.176Z,12.33
2022-10-23T23:18:05.801Z,12.33
2022-10-23T23:20:32.401Z,12.34
2022-10-23T23:22:59.124Z,12.34
2022-10-23T23:25:25.829Z,12.33
2022-10-23T23:27:52.476Z,12.32
2022-10-23T23:30:22.877Z,12.32
2022-10-23T23:32:51.221Z,12.33
2022-10-23T23:35:19.092Z,12.34
2022-10-23T23:37:46.192Z,12.34
2022-10-23T23:40:13.383Z,12.33
2022-10-23T23:42:40.085Z,12.31
2022-10-23T23:45:14.156Z,12.31
2022-10-23T23:47:41.782Z,12.31
2022-10-23T23:50:14.393Z,12.31
2022-10-23T23:52:41.564Z,12.31
2022-10-23T23:55:08.369Z,12.30
2022-10-23T23:57:35.141Z,12.28
